FWKI

Lilongwe International Airport

Lilongwe, Malawi
METAR FWKI 240700Z 08014G24KT 9999 FEW020 21/14 Q1024 NOSIG
Observed Flight Rules
May-24 @ 07:00 UTC (an hour ago) Visual Flight Rules
Wind Visibility Clouds
80° at 14 knots
 Gusting to 24 knots
10,000+ meters
  • Few at 2,000' AGL
Temperatures Readings
Current 21°C / 70°F
Dewpoint 14°C / 57°F
Humidity 64%
Altimeter 30.24" Hg
Pressure 1024 hPa
Elevation 1229
METAR FWKI 240700Z 08014G24KT 9999 FEW020 21/14 Q1024 NOSIG
Observed Flight Rules
May-24 @ 07:00 UTC
(an hour ago)
VFR
Wind Visibility
80° at 14 knots
 Gusting to 24 knots
10,000+ meters
Clouds
  • Few at 2,000' AGL
Temperature Dewpoint
21°C / 70°F 14°C / 57°F
Humidity Altimeter Pressure
64% 30.24" Hg 1024 hPa